sensor_id;sensor_type;location;lat;lon;timestamp;P1;durP1;ratioP1;P2;durP2;ratioP2
769;SDS011;368;48.698;9.116;2022-10-16T00:00:47;6.60;;;2.20;;
769;SDS011;368;48.698;9.116;2022-10-16T00:03:14;2.80;;;1.43;;
769;SDS011;368;48.698;9.116;2022-10-16T00:05:41;2.83;;;1.80;;
769;SDS011;368;48.698;9.116;2022-10-16T00:08:10;2.33;;;1.60;;
769;SDS011;368;48.698;9.116;2022-10-16T00:10:38;2.07;;;1.90;;
769;SDS011;368;48.698;9.116;2022-10-16T00:13:05;2.63;;;1.70;;
769;SDS011;368;48.698;9.116;2022-10-16T00:15:33;2.97;;;1.23;;
769;SDS011;368;48.698;9.116;2022-10-16T00:18:03;1.70;;;1.40;;
769;SDS011;368;48.698;9.116;2022-10-16T00:20:33;3.37;;;1.60;;
769;SDS011;368;48.698;9.116;2022-10-16T00:23:01;2.07;;;1.60;;
769;SDS011;368;48.698;9.116;2022-10-16T00:25:29;5.90;;;1.70;;
769;SDS011;368;48.698;9.116;2022-10-16T00:27:57;2.47;;;1.90;;
769;SDS011;368;48.698;9.116;2022-10-16T00:30:24;3.83;;;1.93;;
769;SDS011;368;48.698;9.116;2022-10-16T00:32:52;2.73;;;1.67;;
769;SDS011;368;48.698;9.116;2022-10-16T00:35:21;2.40;;;1.67;;
769;SDS011;368;48.698;9.116;2022-10-16T00:37:47;3.40;;;1.80;;
769;SDS011;368;48.698;9.116;2022-10-16T00:40:14;3.70;;;1.80;;
769;SDS011;368;48.698;9.116;2022-10-16T00:42:41;4.33;;;2.17;;
769;SDS011;368;48.698;9.116;2022-10-16T00:45:08;3.10;;;1.87;;
769;SDS011;368;48.698;9.116;2022-10-16T00:47:36;3.77;;;1.70;;
769;SDS011;368;48.698;9.116;2022-10-16T00:50:07;7.00;;;2.53;;
769;SDS011;368;48.698;9.116;2022-10-16T00:52:39;1.60;;;1.50;;
769;SDS011;368;48.698;9.116;2022-10-16T00:55:09;6.53;;;2.13;;
769;SDS011;368;48.698;9.116;2022-10-16T00:57:36;2.73;;;1.50;;
769;SDS011;368;48.698;9.116;2022-10-16T01:00:07;2.50;;;1.67;;
769;SDS011;368;48.698;9.116;2022-10-16T01:02:36;3.50;;;1.90;;
769;SDS011;368;48.698;9.116;2022-10-16T01:05:03;3.50;;;1.60;;
769;SDS011;368;48.698;9.116;2022-10-16T01:07:34;5.33;;;1.73;;
769;SDS011;368;48.698;9.116;2022-10-16T01:10:10;8.87;;;1.90;;
769;SDS011;368;48.698;9.116;2022-10-16T01:12:50;6.67;;;2.37;;
769;SDS011;368;48.698;9.116;2022-10-16T01:15:23;9.70;;;2.00;;
769;SDS011;368;48.698;9.116;2022-10-16T01:17:57;9.63;;;1.93;;
769;SDS011;368;48.698;9.116;2022-10-16T01:20:27;4.33;;;1.87;;
769;SDS011;368;48.698;9.116;2022-10-16T01:23:01;4.20;;;1.90;;
769;SDS011;368;48.698;9.116;2022-10-16T01:25:36;9.40;;;2.50;;
769;SDS011;368;48.698;9.116;2022-10-16T01:28:24;6.07;;;2.17;;
769;SDS011;368;48.698;9.116;2022-10-16T01:30:56;3.77;;;2.17;;
769;SDS011;368;48.698;9.116;2022-10-16T01:33:27;3.20;;;2.20;;
769;SDS011;368;48.698;9.116;2022-10-16T01:35:58;3.40;;;1.97;;
769;SDS011;368;48.698;9.116;2022-10-16T01:38:33;4.93;;;1.60;;
769;SDS011;368;48.698;9.116;2022-10-16T01:41:03;2.50;;;2.03;;
769;SDS011;368;48.698;9.116;2022-10-16T01:43:37;3.20;;;1.80;;
769;SDS011;368;48.698;9.116;2022-10-16T01:46:06;3.37;;;2.20;;
769;SDS011;368;48.698;9.116;2022-10-16T01:48:36;2.83;;;1.50;;
769;SDS011;368;48.698;9.116;2022-10-16T01:51:04;6.53;;;2.73;;
769;SDS011;368;48.698;9.116;2022-10-16T01:53:35;2.70;;;2.10;;
769;SDS011;368;48.698;9.116;2022-10-16T01:56:03;2.93;;;2.47;;
769;SDS011;368;48.698;9.116;2022-10-16T01:58:36;3.13;;;1.90;;
769;SDS011;368;48.698;9.116;2022-10-16T02:01:07;2.90;;;2.30;;
769;SDS011;368;48.698;9.116;2022-10-16T02:03:36;6.40;;;2.10;;
769;SDS011;368;48.698;9.116;2022-10-16T02:06:06;4.30;;;1.80;;
769;SDS011;368;48.698;9.116;2022-10-16T02:08:34;2.40;;;1.73;;
769;SDS011;368;48.698;9.116;2022-10-16T02:11:02;1.87;;;1.60;;
769;SDS011;368;48.698;9.116;2022-10-16T02:13:29;1.77;;;1.67;;
769;SDS011;368;48.698;9.116;2022-10-16T02:16:02;2.70;;;1.60;;
769;SDS011;368;48.698;9.116;2022-10-16T02:18:29;2.53;;;1.90;;
769;SDS011;368;48.698;9.116;2022-10-16T02:20:57;3.83;;;1.90;;
769;SDS011;368;48.698;9.116;2022-10-16T02:23:29;1.90;;;1.70;;
769;SDS011;368;48.698;9.116;2022-10-16T02:26:03;6.70;;;2.03;;
769;SDS011;368;48.698;9.116;2022-10-16T02:28:34;2.17;;;1.33;;
769;SDS011;368;48.698;9.116;2022-10-16T02:31:08;4.43;;;1.50;;
769;SDS011;368;48.698;9.116;2022-10-16T02:33:37;8.10;;;2.20;;
769;SDS011;368;48.698;9.116;2022-10-16T02:36:06;4.63;;;1.60;;
769;SDS011;368;48.698;9.116;2022-10-16T02:38:34;7.20;;;1.70;;
769;SDS011;368;48.698;9.116;2022-10-16T02:41:01;2.50;;;1.50;;
769;SDS011;368;48.698;9.116;2022-10-16T02:43:29;3.97;;;1.40;;
769;SDS011;368;48.698;9.116;2022-10-16T02:45:56;4.90;;;1.60;;
769;SDS011;368;48.698;9.116;2022-10-16T02:48:24;2.37;;;1.20;;
769;SDS011;368;48.698;9.116;2022-10-16T02:50:50;6.83;;;1.70;;
769;SDS011;368;48.698;9.116;2022-10-16T02:53:17;3.30;;;1.60;;
769;SDS011;368;48.698;9.116;2022-10-16T02:55:44;5.37;;;1.80;;
769;SDS011;368;48.698;9.116;2022-10-16T02:58:11;3.53;;;1.80;;
769;SDS011;368;48.698;9.116;2022-10-16T03:00:37;3.00;;;1.47;;
769;SDS011;368;48.698;9.116;2022-10-16T03:03:04;3.33;;;1.30;;
769;SDS011;368;48.698;9.116;2022-10-16T03:05:32;3.93;;;1.50;;
769;SDS011;368;48.698;9.116;2022-10-16T03:07:59;3.30;;;1.67;;
769;SDS011;368;48.698;9.116;2022-10-16T03:10:26;2.70;;;1.77;;
769;SDS011;368;48.698;9.116;2022-10-16T03:12:53;6.33;;;1.47;;
769;SDS011;368;48.698;9.116;2022-10-16T03:15:20;3.60;;;1.77;;
769;SDS011;368;48.698;9.116;2022-10-16T03:17:47;3.53;;;1.60;;
769;SDS011;368;48.698;9.116;2022-10-16T03:20:14;9.33;;;1.63;;
769;SDS011;368;48.698;9.116;2022-10-16T03:22:42;4.73;;;1.87;;
769;SDS011;368;48.698;9.116;2022-10-16T03:25:08;6.40;;;2.40;;
769;SDS011;368;48.698;9.116;2022-10-16T03:27:35;4.20;;;1.70;;
769;SDS011;368;48.698;9.116;2022-10-16T03:30:02;2.80;;;1.27;;
769;SDS011;368;48.698;9.116;2022-10-16T03:32:30;4.00;;;1.90;;
769;SDS011;368;48.698;9.116;2022-10-16T03:34:56;4.10;;;1.53;;
769;SDS011;368;48.698;9.116;2022-10-16T03:37:23;2.10;;;1.80;;
769;SDS011;368;48.698;9.116;2022-10-16T03:39:52;3.43;;;2.07;;
769;SDS011;368;48.698;9.116;2022-10-16T03:42:19;6.13;;;1.93;;
769;SDS011;368;48.698;9.116;2022-10-16T03:44:46;4.37;;;1.57;;
769;SDS011;368;48.698;9.116;2022-10-16T03:47:13;5.47;;;1.50;;
769;SDS011;368;48.698;9.116;2022-10-16T03:49:40;6.60;;;1.37;;
769;SDS011;368;48.698;9.116;2022-10-16T03:52:06;4.63;;;2.20;;
769;SDS011;368;48.698;9.116;2022-10-16T03:54:33;6.83;;;1.80;;
769;SDS011;368;48.698;9.116;2022-10-16T03:57:01;6.73;;;1.70;;
769;SDS011;368;48.698;9.116;2022-10-16T03:59:28;5.57;;;2.13;;
769;SDS011;368;48.698;9.116;2022-10-16T04:01:55;6.00;;;1.60;;
769;SDS011;368;48.698;9.116;2022-10-16T04:04:22;4.33;;;1.73;;
769;SDS011;368;48.698;9.116;2022-10-16T04:06:49;3.50;;;1.93;;
769;SDS011;368;48.698;9.116;2022-10-16T04:09:16;3.03;;;1.77;;
769;SDS011;368;48.698;9.116;2022-10-16T04:11:43;5.47;;;1.70;;
769;SDS011;368;48.698;9.116;2022-10-16T04:14:11;3.50;;;1.80;;
769;SDS011;368;48.698;9.116;2022-10-16T04:16:38;7.43;;;1.80;;
769;SDS011;368;48.698;9.116;2022-10-16T04:19:05;3.47;;;1.67;;
769;SDS011;368;48.698;9.116;2022-10-16T04:21:31;9.20;;;2.00;;
769;SDS011;368;48.698;9.116;2022-10-16T04:23:58;6.87;;;1.60;;
769;SDS011;368;48.698;9.116;2022-10-16T04:26:25;3.30;;;1.40;;
769;SDS011;368;48.698;9.116;2022-10-16T04:28:52;3.93;;;1.67;;
769;SDS011;368;48.698;9.116;2022-10-16T04:31:20;4.93;;;2.03;;
769;SDS011;368;48.698;9.116;2022-10-16T04:33:47;3.10;;;1.60;;
769;SDS011;368;48.698;9.116;2022-10-16T04:36:13;1.77;;;1.40;;
769;SDS011;368;48.698;9.116;2022-10-16T04:38:40;3.40;;;1.40;;
769;SDS011;368;48.698;9.116;2022-10-16T04:41:07;2.67;;;1.70;;
769;SDS011;368;48.698;9.116;2022-10-16T04:43:34;6.00;;;1.67;;
769;SDS011;368;48.698;9.116;2022-10-16T04:46:00;4.60;;;2.00;;
769;SDS011;368;48.698;9.116;2022-10-16T04:48:31;9.00;;;2.43;;
769;SDS011;368;48.698;9.116;2022-10-16T04:50:57;12.77;;;1.80;;
769;SDS011;368;48.698;9.116;2022-10-16T04:53:24;6.83;;;2.33;;
769;SDS011;368;48.698;9.116;2022-10-16T04:55:51;3.83;;;1.67;;
769;SDS011;368;48.698;9.116;2022-10-16T04:58:18;5.43;;;1.93;;
769;SDS011;368;48.698;9.116;2022-10-16T05:00:45;3.00;;;1.50;;
769;SDS011;368;48.698;9.116;2022-10-16T05:03:12;4.43;;;1.70;;
769;SDS011;368;48.698;9.116;2022-10-16T05:05:43;5.00;;;1.47;;
769;SDS011;368;48.698;9.116;2022-10-16T05:08:12;2.60;;;1.77;;
769;SDS011;368;48.698;9.116;2022-10-16T05:10:40;6.00;;;1.73;;
769;SDS011;368;48.698;9.116;2022-10-16T05:13:07;5.70;;;1.87;;
769;SDS011;368;48.698;9.116;2022-10-16T05:15:34;2.50;;;1.30;;
769;SDS011;368;48.698;9.116;2022-10-16T05:18:01;4.93;;;1.80;;
769;SDS011;368;48.698;9.116;2022-10-16T05:20:28;5.87;;;2.53;;
769;SDS011;368;48.698;9.116;2022-10-16T05:22:56;4.77;;;2.20;;
769;SDS011;368;48.698;9.116;2022-10-16T05:25:23;6.40;;;2.20;;
769;SDS011;368;48.698;9.116;2022-10-16T05:27:50;3.17;;;1.80;;
769;SDS011;368;48.698;9.116;2022-10-16T05:30:17;6.80;;;3.30;;
769;SDS011;368;48.698;9.116;2022-10-16T05:32:46;7.30;;;2.80;;
769;SDS011;368;48.698;9.116;2022-10-16T05:35:13;8.17;;;3.47;;
769;SDS011;368;48.698;9.116;2022-10-16T05:37:40;5.23;;;2.00;;
769;SDS011;368;48.698;9.116;2022-10-16T05:40:09;8.20;;;3.33;;
769;SDS011;368;48.698;9.116;2022-10-16T05:42:36;9.20;;;2.90;;
769;SDS011;368;48.698;9.116;2022-10-16T05:45:03;5.33;;;2.40;;
769;SDS011;368;48.698;9.116;2022-10-16T05:47:31;4.63;;;2.10;;
769;SDS011;368;48.698;9.116;2022-10-16T05:49:58;4.93;;;2.30;;
769;SDS011;368;48.698;9.116;2022-10-16T05:52:26;6.73;;;2.20;;
769;SDS011;368;48.698;9.116;2022-10-16T05:54:53;2.50;;;1.90;;
769;SDS011;368;48.698;9.116;2022-10-16T05:57:21;4.80;;;1.90;;
769;SDS011;368;48.698;9.116;2022-10-16T05:59:47;4.60;;;1.83;;
769;SDS011;368;48.698;9.116;2022-10-16T06:02:14;3.40;;;1.87;;
769;SDS011;368;48.698;9.116;2022-10-16T06:04:41;4.33;;;1.63;;
769;SDS011;368;48.698;9.116;2022-10-16T06:07:09;2.90;;;2.60;;
769;SDS011;368;48.698;9.116;2022-10-16T06:09:36;5.43;;;3.20;;
769;SDS011;368;48.698;9.116;2022-10-16T06:12:02;4.37;;;1.90;;
769;SDS011;368;48.698;9.116;2022-10-16T06:14:31;4.43;;;2.40;;
769;SDS011;368;48.698;9.116;2022-10-16T06:16:58;3.73;;;2.00;;
769;SDS011;368;48.698;9.116;2022-10-16T06:19:25;5.37;;;1.90;;
769;SDS011;368;48.698;9.116;2022-10-16T06:21:52;2.13;;;1.93;;
769;SDS011;368;48.698;9.116;2022-10-16T06:24:19;5.07;;;2.20;;
769;SDS011;368;48.698;9.116;2022-10-16T06:26:46;4.20;;;1.97;;
769;SDS011;368;48.698;9.116;2022-10-16T06:29:13;8.80;;;2.10;;
769;SDS011;368;48.698;9.116;2022-10-16T06:31:41;5.63;;;1.97;;
769;SDS011;368;48.698;9.116;2022-10-16T06:34:08;2.70;;;2.20;;
769;SDS011;368;48.698;9.116;2022-10-16T06:36:36;3.27;;;2.03;;
769;SDS011;368;48.698;9.116;2022-10-16T06:39:04;5.40;;;1.80;;
769;SDS011;368;48.698;9.116;2022-10-16T06:41:32;5.03;;;1.83;;
769;SDS011;368;48.698;9.116;2022-10-16T06:43:59;7.30;;;1.47;;
769;SDS011;368;48.698;9.116;2022-10-16T06:46:26;4.30;;;1.50;;
769;SDS011;368;48.698;9.116;2022-10-16T06:48:54;5.03;;;2.10;;
769;SDS011;368;48.698;9.116;2022-10-16T06:51:22;5.87;;;2.67;;
769;SDS011;368;48.698;9.116;2022-10-16T06:53:50;3.37;;;2.40;;
769;SDS011;368;48.698;9.116;2022-10-16T06:56:19;4.00;;;1.90;;
769;SDS011;368;48.698;9.116;2022-10-16T06:58:47;3.83;;;1.70;;
769;SDS011;368;48.698;9.116;2022-10-16T07:01:15;2.63;;;1.80;;
769;SDS011;368;48.698;9.116;2022-10-16T07:03:44;2.63;;;1.80;;
769;SDS011;368;48.698;9.116;2022-10-16T07:06:13;4.43;;;1.80;;
769;SDS011;368;48.698;9.116;2022-10-16T07:08:42;2.30;;;1.60;;
769;SDS011;368;48.698;9.116;2022-10-16T07:11:10;4.00;;;1.40;;
769;SDS011;368;48.698;9.116;2022-10-16T07:13:39;4.93;;;2.27;;
769;SDS011;368;48.698;9.116;2022-10-16T07:16:07;7.53;;;1.93;;
769;SDS011;368;48.698;9.116;2022-10-16T07:18:35;2.60;;;1.60;;
769;SDS011;368;48.698;9.116;2022-10-16T07:21:04;7.47;;;1.30;;
769;SDS011;368;48.698;9.116;2022-10-16T07:23:33;2.57;;;1.47;;
769;SDS011;368;48.698;9.116;2022-10-16T07:25:59;5.17;;;1.50;;
769;SDS011;368;48.698;9.116;2022-10-16T07:28:27;6.17;;;1.90;;
769;SDS011;368;48.698;9.116;2022-10-16T07:30:54;4.63;;;1.50;;
769;SDS011;368;48.698;9.116;2022-10-16T07:33:21;5.23;;;1.80;;
769;SDS011;368;48.698;9.116;2022-10-16T07:35:48;2.50;;;1.67;;
769;SDS011;368;48.698;9.116;2022-10-16T07:38:16;3.17;;;1.70;;
769;SDS011;368;48.698;9.116;2022-10-16T07:40:44;7.60;;;1.80;;
769;SDS011;368;48.698;9.116;2022-10-16T07:43:13;3.87;;;1.70;;
769;SDS011;368;48.698;9.116;2022-10-16T07:45:46;6.90;;;1.90;;
769;SDS011;368;48.698;9.116;2022-10-16T07:48:14;4.10;;;1.90;;
769;SDS011;368;48.698;9.116;2022-10-16T07:50:41;3.90;;;1.37;;
769;SDS011;368;48.698;9.116;2022-10-16T07:53:09;2.97;;;1.70;;
769;SDS011;368;48.698;9.116;2022-10-16T07:55:36;5.73;;;1.67;;
769;SDS011;368;48.698;9.116;2022-10-16T07:58:04;6.17;;;1.87;;
769;SDS011;368;48.698;9.116;2022-10-16T08:00:32;3.10;;;1.87;;
769;SDS011;368;48.698;9.116;2022-10-16T08:02:59;3.90;;;1.73;;
769;SDS011;368;48.698;9.116;2022-10-16T08:05:26;2.90;;;1.80;;
769;SDS011;368;48.698;9.116;2022-10-16T08:07:53;3.23;;;2.00;;
769;SDS011;368;48.698;9.116;2022-10-16T08:10:22;3.57;;;1.50;;
769;SDS011;368;48.698;9.116;2022-10-16T08:12:53;2.00;;;1.80;;
769;SDS011;368;48.698;9.116;2022-10-16T08:15:21;6.00;;;2.23;;
769;SDS011;368;48.698;9.116;2022-10-16T08:17:54;3.47;;;1.37;;
769;SDS011;368;48.698;9.116;2022-10-16T08:20:22;2.97;;;1.67;;
769;SDS011;368;48.698;9.116;2022-10-16T08:22:48;9.10;;;2.10;;
769;SDS011;368;48.698;9.116;2022-10-16T08:25:15;3.10;;;1.90;;
769;SDS011;368;48.698;9.116;2022-10-16T08:27:42;1.97;;;1.73;;
769;SDS011;368;48.698;9.116;2022-10-16T08:30:10;2.20;;;1.60;;
769;SDS011;368;48.698;9.116;2022-10-16T08:32:38;3.00;;;1.50;;
769;SDS011;368;48.698;9.116;2022-10-16T08:35:07;4.20;;;1.60;;
769;SDS011;368;48.698;9.116;2022-10-16T08:37:35;2.70;;;1.53;;
769;SDS011;368;48.698;9.116;2022-10-16T08:40:02;3.40;;;1.70;;
769;SDS011;368;48.698;9.116;2022-10-16T08:42:33;2.83;;;1.47;;
769;SDS011;368;48.698;9.116;2022-10-16T08:48:12;3.80;;;1.70;;
769;SDS011;368;48.698;9.116;2022-10-16T08:50:43;2.43;;;1.73;;
769;SDS011;368;48.698;9.116;2022-10-16T08:53:13;3.50;;;1.70;;
769;SDS011;368;48.698;9.116;2022-10-16T08:55:45;5.50;;;3.13;;
769;SDS011;368;48.698;9.116;2022-10-16T08:58:15;5.37;;;3.50;;
769;SDS011;368;48.698;9.116;2022-10-16T09:00:43;7.60;;;3.50;;
769;SDS011;368;48.698;9.116;2022-10-16T09:03:16;5.97;;;3.73;;
769;SDS011;368;48.698;9.116;2022-10-16T09:05:52;4.40;;;3.20;;
769;SDS011;368;48.698;9.116;2022-10-16T09:08:35;6.33;;;3.77;;
769;SDS011;368;48.698;9.116;2022-10-16T09:11:09;5.70;;;2.97;;
769;SDS011;368;48.698;9.116;2022-10-16T09:13:43;2.20;;;1.70;;
769;SDS011;368;48.698;9.116;2022-10-16T09:16:19;2.30;;;1.90;;
769;SDS011;368;48.698;9.116;2022-10-16T09:18:54;2.53;;;1.60;;
769;SDS011;368;48.698;9.116;2022-10-16T09:21:25;3.87;;;1.93;;
769;SDS011;368;48.698;9.116;2022-10-16T09:23:55;3.73;;;1.70;;
769;SDS011;368;48.698;9.116;2022-10-16T09:26:25;1.90;;;1.50;;
769;SDS011;368;48.698;9.116;2022-10-16T09:28:52;2.90;;;1.50;;
769;SDS011;368;48.698;9.116;2022-10-16T09:31:20;5.27;;;1.50;;
769;SDS011;368;48.698;9.116;2022-10-16T09:33:48;1.40;;;1.17;;
769;SDS011;368;48.698;9.116;2022-10-16T09:36:20;3.50;;;1.27;;
769;SDS011;368;48.698;9.116;2022-10-16T09:38:48;1.57;;;1.17;;
769;SDS011;368;48.698;9.116;2022-10-16T09:41:16;3.03;;;1.27;;
769;SDS011;368;48.698;9.116;2022-10-16T09:43:48;1.50;;;1.40;;
769;SDS011;368;48.698;9.116;2022-10-16T09:46:24;3.13;;;0.90;;
769;SDS011;368;48.698;9.116;2022-10-16T09:48:53;2.13;;;1.43;;
769;SDS011;368;48.698;9.116;2022-10-16T09:51:24;3.43;;;1.40;;
769;SDS011;368;48.698;9.116;2022-10-16T09:53:54;5.53;;;1.50;;
769;SDS011;368;48.698;9.116;2022-10-16T09:56:23;1.47;;;1.20;;
769;SDS011;368;48.698;9.116;2022-10-16T09:58:51;2.20;;;1.37;;
769;SDS011;368;48.698;9.116;2022-10-16T10:01:19;4.50;;;1.33;;
769;SDS011;368;48.698;9.116;2022-10-16T10:03:49;2.30;;;1.00;;
769;SDS011;368;48.698;9.116;2022-10-16T10:06:18;2.87;;;1.70;;
769;SDS011;368;48.698;9.116;2022-10-16T10:08:54;3.57;;;1.67;;
769;SDS011;368;48.698;9.116;2022-10-16T10:11:45;2.50;;;1.30;;
769;SDS011;368;48.698;9.116;2022-10-16T10:14:24;1.50;;;1.40;;
769;SDS011;368;48.698;9.116;2022-10-16T10:17:14;1.70;;;1.10;;
769;SDS011;368;48.698;9.116;2022-10-16T10:19:46;2.30;;;1.20;;
769;SDS011;368;48.698;9.116;2022-10-16T10:22:18;1.30;;;1.10;;
769;SDS011;368;48.698;9.116;2022-10-16T10:24:59;4.93;;;1.57;;
769;SDS011;368;48.698;9.116;2022-10-16T10:27:36;2.03;;;1.50;;
769;SDS011;368;48.698;9.116;2022-10-16T10:30:09;1.97;;;1.10;;
769;SDS011;368;48.698;9.116;2022-10-16T10:32:46;2.90;;;1.50;;
769;SDS011;368;48.698;9.116;2022-10-16T10:35:22;3.53;;;1.20;;
769;SDS011;368;48.698;9.116;2022-10-16T10:37:56;2.93;;;1.37;;
769;SDS011;368;48.698;9.116;2022-10-16T10:40:45;2.37;;;1.73;;
769;SDS011;368;48.698;9.116;2022-10-16T10:43:28;2.67;;;1.53;;
769;SDS011;368;48.698;9.116;2022-10-16T10:46:08;2.53;;;1.30;;
769;SDS011;368;48.698;9.116;2022-10-16T10:51:34;4.97;;;1.47;;
769;SDS011;368;48.698;9.116;2022-10-16T10:54:13;2.33;;;1.13;;
769;SDS011;368;48.698;9.116;2022-10-16T10:56:47;1.77;;;0.93;;
769;SDS011;368;48.698;9.116;2022-10-16T10:59:32;4.37;;;1.20;;
769;SDS011;368;48.698;9.116;2022-10-16T11:02:10;2.40;;;1.60;;
769;SDS011;368;48.698;9.116;2022-10-16T11:07:52;2.20;;;2.00;;
769;SDS011;368;48.698;9.116;2022-10-16T11:10:25;1.97;;;1.47;;
769;SDS011;368;48.698;9.116;2022-10-16T11:12:58;2.17;;;1.17;;
769;SDS011;368;48.698;9.116;2022-10-16T11:15:36;4.63;;;1.67;;
769;SDS011;368;48.698;9.116;2022-10-16T11:18:06;3.37;;;1.73;;
769;SDS011;368;48.698;9.116;2022-10-16T11:20:39;3.33;;;1.73;;
769;SDS011;368;48.698;9.116;2022-10-16T11:23:13;1.63;;;1.53;;
769;SDS011;368;48.698;9.116;2022-10-16T11:25:44;3.43;;;1.63;;
769;SDS011;368;48.698;9.116;2022-10-16T11:28:14;6.47;;;1.63;;
769;SDS011;368;48.698;9.116;2022-10-16T11:30:47;3.83;;;1.70;;
769;SDS011;368;48.698;9.116;2022-10-16T11:36:06;2.67;;;1.70;;
769;SDS011;368;48.698;9.116;2022-10-16T11:38:39;2.40;;;1.30;;
769;SDS011;368;48.698;9.116;2022-10-16T11:41:18;1.73;;;1.10;;
769;SDS011;368;48.698;9.116;2022-10-16T11:43:53;1.10;;;0.90;;
769;SDS011;368;48.698;9.116;2022-10-16T11:46:28;2.50;;;1.30;;
769;SDS011;368;48.698;9.116;2022-10-16T11:49:00;2.83;;;1.30;;
769;SDS011;368;48.698;9.116;2022-10-16T11:51:35;3.03;;;1.17;;
769;SDS011;368;48.698;9.116;2022-10-16T11:54:08;5.40;;;1.60;;
769;SDS011;368;48.698;9.116;2022-10-16T11:56:41;2.90;;;1.23;;
769;SDS011;368;48.698;9.116;2022-10-16T11:59:13;3.20;;;1.80;;
769;SDS011;368;48.698;9.116;2022-10-16T12:01:48;1.70;;;1.30;;
769;SDS011;368;48.698;9.116;2022-10-16T12:04:21;2.10;;;1.27;;
769;SDS011;368;48.698;9.116;2022-10-16T12:06:55;2.60;;;1.37;;
769;SDS011;368;48.698;9.116;2022-10-16T12:09:28;1.07;;;0.97;;
769;SDS011;368;48.698;9.116;2022-10-16T12:11:56;2.60;;;1.60;;
769;SDS011;368;48.698;9.116;2022-10-16T12:14:35;1.20;;;1.07;;
769;SDS011;368;48.698;9.116;2022-10-16T12:19:56;4.07;;;1.30;;
769;SDS011;368;48.698;9.116;2022-10-16T12:22:24;1.43;;;1.30;;
769;SDS011;368;48.698;9.116;2022-10-16T12:24:55;1.47;;;1.00;;
769;SDS011;368;48.698;9.116;2022-10-16T12:27:23;2.23;;;1.30;;
769;SDS011;368;48.698;9.116;2022-10-16T12:29:56;2.30;;;1.37;;
769;SDS011;368;48.698;9.116;2022-10-16T12:32:27;3.77;;;1.30;;
769;SDS011;368;48.698;9.116;2022-10-16T12:34:57;1.23;;;1.00;;
769;SDS011;368;48.698;9.116;2022-10-16T12:37:25;2.50;;;1.30;;
769;SDS011;368;48.698;9.116;2022-10-16T12:39:54;3.23;;;1.40;;
769;SDS011;368;48.698;9.116;2022-10-16T12:42:30;1.83;;;1.17;;
769;SDS011;368;48.698;9.116;2022-10-16T12:45:01;1.73;;;1.20;;
769;SDS011;368;48.698;9.116;2022-10-16T12:47:47;1.30;;;1.20;;
769;SDS011;368;48.698;9.116;2022-10-16T12:50:30;1.63;;;1.43;;
769;SDS011;368;48.698;9.116;2022-10-16T12:52:59;4.90;;;1.60;;
769;SDS011;368;48.698;9.116;2022-10-16T12:55:27;4.03;;;1.90;;
769;SDS011;368;48.698;9.116;2022-10-16T12:58:09;1.77;;;1.43;;
769;SDS011;368;48.698;9.116;2022-10-16T13:00:56;1.73;;;1.50;;
769;SDS011;368;48.698;9.116;2022-10-16T13:06:30;2.83;;;1.80;;
769;SDS011;368;48.698;9.116;2022-10-16T13:09:07;1.23;;;1.13;;
769;SDS011;368;48.698;9.116;2022-10-16T13:17:36;2.67;;;1.70;;
769;SDS011;368;48.698;9.116;2022-10-16T13:20:12;3.73;;;1.50;;
769;SDS011;368;48.698;9.116;2022-10-16T13:22:50;1.77;;;1.20;;
769;SDS011;368;48.698;9.116;2022-10-16T13:25:27;2.87;;;1.43;;
769;SDS011;368;48.698;9.116;2022-10-16T13:28:00;1.33;;;1.23;;
769;SDS011;368;48.698;9.116;2022-10-16T13:30:29;1.63;;;1.40;;
769;SDS011;368;48.698;9.116;2022-10-16T13:33:00;1.83;;;1.30;;
769;SDS011;368;48.698;9.116;2022-10-16T13:35:31;1.77;;;1.50;;
769;SDS011;368;48.698;9.116;2022-10-16T13:38:03;3.17;;;1.63;;
769;SDS011;368;48.698;9.116;2022-10-16T13:40:48;2.00;;;1.43;;
769;SDS011;368;48.698;9.116;2022-10-16T13:43:16;3.73;;;1.33;;
769;SDS011;368;48.698;9.116;2022-10-16T13:45:51;2.30;;;1.60;;
769;SDS011;368;48.698;9.116;2022-10-16T13:48:21;3.33;;;1.50;;
769;SDS011;368;48.698;9.116;2022-10-16T13:50:57;2.00;;;1.40;;
769;SDS011;368;48.698;9.116;2022-10-16T13:53:29;1.50;;;1.40;;
769;SDS011;368;48.698;9.116;2022-10-16T13:55:57;1.90;;;1.70;;
769;SDS011;368;48.698;9.116;2022-10-16T13:58:26;1.50;;;1.40;;
769;SDS011;368;48.698;9.116;2022-10-16T14:00:54;2.30;;;1.60;;
769;SDS011;368;48.698;9.116;2022-10-16T14:03:24;1.83;;;1.20;;
769;SDS011;368;48.698;9.116;2022-10-16T14:05:52;1.60;;;1.50;;
769;SDS011;368;48.698;9.116;2022-10-16T14:08:21;1.30;;;1.20;;
769;SDS011;368;48.698;9.116;2022-10-16T14:10:49;1.50;;;1.40;;
769;SDS011;368;48.698;9.116;2022-10-16T14:13:19;2.30;;;1.70;;
769;SDS011;368;48.698;9.116;2022-10-16T14:15:51;3.10;;;1.60;;
769;SDS011;368;48.698;9.116;2022-10-16T14:18:20;1.47;;;1.33;;
769;SDS011;368;48.698;9.116;2022-10-16T14:20:50;1.80;;;1.70;;
769;SDS011;368;48.698;9.116;2022-10-16T14:23:21;3.30;;;1.40;;
769;SDS011;368;48.698;9.116;2022-10-16T14:25:51;1.43;;;1.30;;
769;SDS011;368;48.698;9.116;2022-10-16T14:28:18;4.80;;;1.50;;
769;SDS011;368;48.698;9.116;2022-10-16T14:30:50;4.10;;;1.53;;
769;SDS011;368;48.698;9.116;2022-10-16T14:33:20;3.97;;;1.70;;
769;SDS011;368;48.698;9.116;2022-10-16T14:36:00;3.83;;;1.40;;
769;SDS011;368;48.698;9.116;2022-10-16T14:38:29;3.30;;;1.93;;
769;SDS011;368;48.698;9.116;2022-10-16T14:40:57;1.40;;;1.23;;
769;SDS011;368;48.698;9.116;2022-10-16T14:43:29;2.37;;;1.50;;
769;SDS011;368;48.698;9.116;2022-10-16T14:45:59;1.70;;;1.60;;
769;SDS011;368;48.698;9.116;2022-10-16T14:48:27;2.17;;;1.70;;
769;SDS011;368;48.698;9.116;2022-10-16T14:50:54;1.97;;;1.70;;
769;SDS011;368;48.698;9.116;2022-10-16T14:53:23;2.40;;;1.70;;
769;SDS011;368;48.698;9.116;2022-10-16T14:55:50;1.83;;;1.33;;
769;SDS011;368;48.698;9.116;2022-10-16T14:58:19;2.33;;;1.57;;
769;SDS011;368;48.698;9.116;2022-10-16T15:00:49;3.63;;;2.20;;
769;SDS011;368;48.698;9.116;2022-10-16T15:03:16;1.73;;;1.43;;
769;SDS011;368;48.698;9.116;2022-10-16T15:05:43;2.90;;;1.40;;
769;SDS011;368;48.698;9.116;2022-10-16T15:08:10;3.20;;;1.70;;
769;SDS011;368;48.698;9.116;2022-10-16T15:10:39;3.47;;;1.50;;
769;SDS011;368;48.698;9.116;2022-10-16T15:13:09;7.53;;;2.40;;
769;SDS011;368;48.698;9.116;2022-10-16T15:15:39;2.07;;;1.77;;
769;SDS011;368;48.698;9.116;2022-10-16T15:18:10;1.70;;;1.57;;
769;SDS011;368;48.698;9.116;2022-10-16T15:20:39;2.07;;;1.57;;
769;SDS011;368;48.698;9.116;2022-10-16T15:23:10;2.13;;;1.80;;
769;SDS011;368;48.698;9.116;2022-10-16T15:25:42;2.90;;;1.70;;
769;SDS011;368;48.698;9.116;2022-10-16T15:28:11;3.40;;;1.63;;
769;SDS011;368;48.698;9.116;2022-10-16T15:30:38;2.00;;;1.80;;
769;SDS011;368;48.698;9.116;2022-10-16T15:33:10;2.30;;;1.83;;
769;SDS011;368;48.698;9.116;2022-10-16T15:35:39;6.00;;;1.90;;
769;SDS011;368;48.698;9.116;2022-10-16T15:38:06;4.40;;;2.00;;
769;SDS011;368;48.698;9.116;2022-10-16T15:40:35;2.03;;;1.93;;
769;SDS011;368;48.698;9.116;2022-10-16T15:43:03;3.87;;;1.90;;
769;SDS011;368;48.698;9.116;2022-10-16T15:45:30;5.17;;;2.10;;
769;SDS011;368;48.698;9.116;2022-10-16T15:47:58;3.63;;;2.23;;
769;SDS011;368;48.698;9.116;2022-10-16T15:50:25;3.27;;;1.80;;
769;SDS011;368;48.698;9.116;2022-10-16T15:52:52;6.10;;;2.10;;
769;SDS011;368;48.698;9.116;2022-10-16T15:55:19;2.30;;;2.00;;
769;SDS011;368;48.698;9.116;2022-10-16T15:57:46;4.07;;;1.60;;
769;SDS011;368;48.698;9.116;2022-10-16T16:00:15;2.47;;;1.87;;
769;SDS011;368;48.698;9.116;2022-10-16T16:02:49;2.70;;;2.10;;
769;SDS011;368;48.698;9.116;2022-10-16T16:05:17;3.67;;;1.90;;
769;SDS011;368;48.698;9.116;2022-10-16T16:07:46;3.07;;;2.07;;
769;SDS011;368;48.698;9.116;2022-10-16T16:10:14;2.43;;;1.80;;
769;SDS011;368;48.698;9.116;2022-10-16T16:12:41;9.40;;;2.80;;
769;SDS011;368;48.698;9.116;2022-10-16T16:15:09;2.90;;;1.67;;
769;SDS011;368;48.698;9.116;2022-10-16T16:17:37;5.40;;;2.07;;
769;SDS011;368;48.698;9.116;2022-10-16T16:20:04;6.00;;;2.53;;
769;SDS011;368;48.698;9.116;2022-10-16T16:22:32;7.47;;;2.50;;
769;SDS011;368;48.698;9.116;2022-10-16T16:24:59;10.83;;;2.30;;